sensor_id;sensor_type;location;lat;lon;timestamp;P1;durP1;ratioP1;P2;durP2;ratioP2
10845;SDS011;5476;51.540;7.186;2023-02-22T00:01:18;65.77;;;25.47;;
10845;SDS011;5476;51.540;7.186;2023-02-22T00:03:59;65.47;;;24.60;;
10845;SDS011;5476;51.540;7.186;2023-02-22T00:06:26;64.90;;;24.07;;
10845;SDS011;5476;51.540;7.186;2023-02-22T00:08:56;70.77;;;25.90;;
10845;SDS011;5476;51.540;7.186;2023-02-22T00:11:24;60.23;;;23.50;;
10845;SDS011;5476;51.540;7.186;2023-02-22T00:13:51;57.00;;;22.37;;
10845;SDS011;5476;51.540;7.186;2023-02-22T00:16:21;62.43;;;23.53;;
10845;SDS011;5476;51.540;7.186;2023-02-22T00:18:49;59.60;;;23.40;;
10845;SDS011;5476;51.540;7.186;2023-02-22T00:21:17;61.63;;;24.80;;
10845;SDS011;5476;51.540;7.186;2023-02-22T00:23:45;56.60;;;23.50;;
10845;SDS011;5476;51.540;7.186;2023-02-22T00:26:15;56.37;;;22.10;;
10845;SDS011;5476;51.540;7.186;2023-02-22T00:28:44;59.40;;;23.90;;
10845;SDS011;5476;51.540;7.186;2023-02-22T00:31:12;59.97;;;23.80;;
10845;SDS011;5476;51.540;7.186;2023-02-22T00:33:40;65.20;;;24.93;;
10845;SDS011;5476;51.540;7.186;2023-02-22T00:36:07;67.83;;;25.40;;
10845;SDS011;5476;51.540;7.186;2023-02-22T00:38:34;64.90;;;23.50;;
10845;SDS011;5476;51.540;7.186;2023-02-22T00:41:02;66.33;;;26.43;;
10845;SDS011;5476;51.540;7.186;2023-02-22T00:43:30;71.83;;;25.23;;
10845;SDS011;5476;51.540;7.186;2023-02-22T00:45:58;70.20;;;25.10;;
10845;SDS011;5476;51.540;7.186;2023-02-22T00:48:25;67.63;;;25.03;;
10845;SDS011;5476;51.540;7.186;2023-02-22T00:50:52;74.50;;;27.43;;
10845;SDS011;5476;51.540;7.186;2023-02-22T00:53:21;71.60;;;26.27;;
10845;SDS011;5476;51.540;7.186;2023-02-22T00:55:49;76.40;;;27.53;;
10845;SDS011;5476;51.540;7.186;2023-02-22T00:58:16;77.63;;;26.30;;
10845;SDS011;5476;51.540;7.186;2023-02-22T01:00:45;77.57;;;26.83;;
10845;SDS011;5476;51.540;7.186;2023-02-22T01:03:13;75.67;;;26.57;;
10845;SDS011;5476;51.540;7.186;2023-02-22T01:05:40;75.23;;;26.40;;
10845;SDS011;5476;51.540;7.186;2023-02-22T01:08:08;79.47;;;26.57;;
10845;SDS011;5476;51.540;7.186;2023-02-22T01:10:36;84.73;;;26.90;;
10845;SDS011;5476;51.540;7.186;2023-02-22T01:13:04;86.13;;;28.13;;
10845;SDS011;5476;51.540;7.186;2023-02-22T01:15:33;83.03;;;27.80;;
10845;SDS011;5476;51.540;7.186;2023-02-22T01:18:02;83.90;;;26.97;;
10845;SDS011;5476;51.540;7.186;2023-02-22T01:20:30;94.43;;;28.90;;
10845;SDS011;5476;51.540;7.186;2023-02-22T01:22:58;81.53;;;27.43;;
10845;SDS011;5476;51.540;7.186;2023-02-22T01:25:28;81.37;;;27.10;;
10845;SDS011;5476;51.540;7.186;2023-02-22T01:27:57;83.03;;;26.53;;
10845;SDS011;5476;51.540;7.186;2023-02-22T01:30:26;86.17;;;27.60;;
10845;SDS011;5476;51.540;7.186;2023-02-22T01:32:54;91.37;;;30.07;;
10845;SDS011;5476;51.540;7.186;2023-02-22T01:35:23;92.43;;;27.57;;
10845;SDS011;5476;51.540;7.186;2023-02-22T01:37:51;88.53;;;27.90;;
10845;SDS011;5476;51.540;7.186;2023-02-22T01:40:19;94.73;;;28.77;;
10845;SDS011;5476;51.540;7.186;2023-02-22T01:42:50;83.30;;;27.30;;
10845;SDS011;5476;51.540;7.186;2023-02-22T01:45:39;86.83;;;26.67;;
10845;SDS011;5476;51.540;7.186;2023-02-22T01:48:12;91.60;;;27.33;;
10845;SDS011;5476;51.540;7.186;2023-02-22T01:50:45;87.37;;;26.87;;
10845;SDS011;5476;51.540;7.186;2023-02-22T01:53:13;94.47;;;28.40;;
10845;SDS011;5476;51.540;7.186;2023-02-22T01:55:42;93.93;;;28.60;;
10845;SDS011;5476;51.540;7.186;2023-02-22T01:58:11;96.50;;;26.23;;
10845;SDS011;5476;51.540;7.186;2023-02-22T02:00:39;98.13;;;27.73;;
10845;SDS011;5476;51.540;7.186;2023-02-22T02:03:11;90.53;;;26.83;;
10845;SDS011;5476;51.540;7.186;2023-02-22T02:05:41;93.20;;;27.13;;
10845;SDS011;5476;51.540;7.186;2023-02-22T02:08:13;107.07;;;26.53;;
10845;SDS011;5476;51.540;7.186;2023-02-22T02:10:47;91.33;;;26.40;;
10845;SDS011;5476;51.540;7.186;2023-02-22T02:13:14;89.23;;;26.17;;
10845;SDS011;5476;51.540;7.186;2023-02-22T02:15:41;119.63;;;24.67;;
10845;SDS011;5476;51.540;7.186;2023-02-22T02:18:09;89.87;;;25.57;;
10845;SDS011;5476;51.540;7.186;2023-02-22T02:20:49;101.33;;;26.73;;
10845;SDS011;5476;51.540;7.186;2023-02-22T02:23:36;85.37;;;26.23;;
10845;SDS011;5476;51.540;7.186;2023-02-22T02:26:26;107.20;;;26.30;;
10845;SDS011;5476;51.540;7.186;2023-02-22T02:29:17;100.83;;;26.90;;
10845;SDS011;5476;51.540;7.186;2023-02-22T02:32:14;102.57;;;25.77;;
10845;SDS011;5476;51.540;7.186;2023-02-22T02:34:48;85.10;;;25.30;;
10845;SDS011;5476;51.540;7.186;2023-02-22T02:37:18;90.57;;;25.50;;
10845;SDS011;5476;51.540;7.186;2023-02-22T02:39:48;106.87;;;26.10;;
10845;SDS011;5476;51.540;7.186;2023-02-22T02:42:19;97.93;;;25.50;;
10845;SDS011;5476;51.540;7.186;2023-02-22T02:44:47;94.87;;;26.43;;
10845;SDS011;5476;51.540;7.186;2023-02-22T02:47:22;106.87;;;25.90;;
10845;SDS011;5476;51.540;7.186;2023-02-22T02:49:53;102.43;;;29.07;;
10845;SDS011;5476;51.540;7.186;2023-02-22T02:52:22;118.30;;;29.40;;
10845;SDS011;5476;51.540;7.186;2023-02-22T02:54:52;99.77;;;28.30;;
10845;SDS011;5476;51.540;7.186;2023-02-22T02:57:20;162.33;;;29.40;;
10845;SDS011;5476;51.540;7.186;2023-02-22T02:59:48;101.60;;;26.57;;
10845;SDS011;5476;51.540;7.186;2023-02-22T03:02:20;87.40;;;25.37;;
10845;SDS011;5476;51.540;7.186;2023-02-22T03:05:11;105.53;;;28.57;;
10845;SDS011;5476;51.540;7.186;2023-02-22T03:07:48;96.73;;;27.27;;
10845;SDS011;5476;51.540;7.186;2023-02-22T03:10:20;100.40;;;28.50;;
10845;SDS011;5476;51.540;7.186;2023-02-22T03:12:54;161.80;;;27.50;;
10845;SDS011;5476;51.540;7.186;2023-02-22T03:15:26;116.27;;;27.40;;
10845;SDS011;5476;51.540;7.186;2023-02-22T03:17:59;127.20;;;25.83;;
10845;SDS011;5476;51.540;7.186;2023-02-22T03:20:32;106.23;;;27.27;;
10845;SDS011;5476;51.540;7.186;2023-02-22T03:23:03;133.50;;;26.40;;
10845;SDS011;5476;51.540;7.186;2023-02-22T03:25:33;95.00;;;25.00;;
10845;SDS011;5476;51.540;7.186;2023-02-22T03:28:06;104.33;;;26.23;;
10845;SDS011;5476;51.540;7.186;2023-02-22T03:30:37;143.17;;;27.90;;
10845;SDS011;5476;51.540;7.186;2023-02-22T03:33:10;110.33;;;25.33;;
10845;SDS011;5476;51.540;7.186;2023-02-22T03:35:40;133.97;;;25.60;;
10845;SDS011;5476;51.540;7.186;2023-02-22T03:38:12;107.20;;;24.57;;
10845;SDS011;5476;51.540;7.186;2023-02-22T03:40:43;141.00;;;25.73;;
10845;SDS011;5476;51.540;7.186;2023-02-22T03:43:12;86.97;;;21.40;;
10845;SDS011;5476;51.540;7.186;2023-02-22T03:45:42;89.37;;;22.20;;
10845;SDS011;5476;51.540;7.186;2023-02-22T03:48:13;112.33;;;22.77;;
10845;SDS011;5476;51.540;7.186;2023-02-22T03:50:46;93.27;;;19.87;;
10845;SDS011;5476;51.540;7.186;2023-02-22T03:53:15;73.50;;;19.67;;
10845;SDS011;5476;51.540;7.186;2023-02-22T03:55:43;83.63;;;18.80;;
10845;SDS011;5476;51.540;7.186;2023-02-22T03:58:11;103.07;;;20.10;;
10845;SDS011;5476;51.540;7.186;2023-02-22T04:00:40;73.00;;;17.90;;
10845;SDS011;5476;51.540;7.186;2023-02-22T04:03:08;57.53;;;17.43;;
10845;SDS011;5476;51.540;7.186;2023-02-22T04:05:37;64.27;;;18.40;;
10845;SDS011;5476;51.540;7.186;2023-02-22T04:08:04;55.77;;;16.73;;
10845;SDS011;5476;51.540;7.186;2023-02-22T04:10:32;69.27;;;16.77;;
10845;SDS011;5476;51.540;7.186;2023-02-22T04:13:01;52.67;;;15.60;;
10845;SDS011;5476;51.540;7.186;2023-02-22T04:15:31;51.27;;;15.77;;
10845;SDS011;5476;51.540;7.186;2023-02-22T04:17:58;53.90;;;15.30;;
10845;SDS011;5476;51.540;7.186;2023-02-22T04:20:25;43.13;;;14.50;;
10845;SDS011;5476;51.540;7.186;2023-02-22T04:22:54;44.60;;;13.47;;
10845;SDS011;5476;51.540;7.186;2023-02-22T04:25:21;38.43;;;14.07;;
10845;SDS011;5476;51.540;7.186;2023-02-22T04:27:49;38.30;;;14.43;;
10845;SDS011;5476;51.540;7.186;2023-02-22T04:30:17;38.73;;;14.47;;
10845;SDS011;5476;51.540;7.186;2023-02-22T04:32:44;37.53;;;13.43;;
10845;SDS011;5476;51.540;7.186;2023-02-22T04:35:12;33.73;;;13.93;;
10845;SDS011;5476;51.540;7.186;2023-02-22T04:37:39;34.97;;;13.23;;
10845;SDS011;5476;51.540;7.186;2023-02-22T04:40:08;33.03;;;13.97;;
10845;SDS011;5476;51.540;7.186;2023-02-22T04:42:35;35.33;;;13.50;;
10845;SDS011;5476;51.540;7.186;2023-02-22T04:45:04;29.80;;;14.10;;
10845;SDS011;5476;51.540;7.186;2023-02-22T04:47:33;36.50;;;14.47;;
10845;SDS011;5476;51.540;7.186;2023-02-22T04:50:00;39.07;;;13.93;;
10845;SDS011;5476;51.540;7.186;2023-02-22T04:52:27;68.13;;;15.50;;
10845;SDS011;5476;51.540;7.186;2023-02-22T04:54:54;58.37;;;14.97;;
10845;SDS011;5476;51.540;7.186;2023-02-22T04:57:24;93.87;;;16.60;;
10845;SDS011;5476;51.540;7.186;2023-02-22T04:59:51;73.23;;;15.87;;
10845;SDS011;5476;51.540;7.186;2023-02-22T05:02:18;60.20;;;16.27;;
10845;SDS011;5476;51.540;7.186;2023-02-22T05:04:45;45.07;;;15.87;;
10845;SDS011;5476;51.540;7.186;2023-02-22T05:07:13;68.67;;;16.97;;
10845;SDS011;5476;51.540;7.186;2023-02-22T05:09:40;52.77;;;16.17;;
10845;SDS011;5476;51.540;7.186;2023-02-22T05:12:07;41.23;;;15.57;;
10845;SDS011;5476;51.540;7.186;2023-02-22T05:14:36;53.37;;;17.03;;
10845;SDS011;5476;51.540;7.186;2023-02-22T05:17:03;46.73;;;15.13;;
10845;SDS011;5476;51.540;7.186;2023-02-22T05:19:30;62.27;;;16.83;;
10845;SDS011;5476;51.540;7.186;2023-02-22T05:21:57;44.23;;;17.73;;
10845;SDS011;5476;51.540;7.186;2023-02-22T05:24:24;56.00;;;17.10;;
10845;SDS011;5476;51.540;7.186;2023-02-22T05:26:52;53.40;;;16.77;;
10845;SDS011;5476;51.540;7.186;2023-02-22T05:29:19;62.03;;;16.17;;
10845;SDS011;5476;51.540;7.186;2023-02-22T05:31:48;77.60;;;17.13;;
10845;SDS011;5476;51.540;7.186;2023-02-22T05:34:15;91.13;;;17.90;;
10845;SDS011;5476;51.540;7.186;2023-02-22T05:36:42;37.50;;;15.43;;
10845;SDS011;5476;51.540;7.186;2023-02-22T05:39:10;43.37;;;14.63;;
10845;SDS011;5476;51.540;7.186;2023-02-22T05:41:37;66.70;;;16.63;;
10845;SDS011;5476;51.540;7.186;2023-02-22T05:44:05;90.27;;;17.87;;
10845;SDS011;5476;51.540;7.186;2023-02-22T05:46:32;58.93;;;15.87;;
10845;SDS011;5476;51.540;7.186;2023-02-22T05:49:00;82.67;;;16.60;;
10845;SDS011;5476;51.540;7.186;2023-02-22T05:51:27;52.13;;;15.83;;
10845;SDS011;5476;51.540;7.186;2023-02-22T05:53:55;118.97;;;18.50;;
10845;SDS011;5476;51.540;7.186;2023-02-22T05:56:22;102.40;;;16.50;;
10845;SDS011;5476;51.540;7.186;2023-02-22T05:58:50;75.40;;;17.63;;
10845;SDS011;5476;51.540;7.186;2023-02-22T06:01:17;66.63;;;16.03;;
10845;SDS011;5476;51.540;7.186;2023-02-22T06:03:45;65.63;;;16.77;;
10845;SDS011;5476;51.540;7.186;2023-02-22T06:06:14;48.57;;;17.03;;
10845;SDS011;5476;51.540;7.186;2023-02-22T06:08:42;95.77;;;17.47;;
10845;SDS011;5476;51.540;7.186;2023-02-22T06:11:09;36.50;;;15.37;;
10845;SDS011;5476;51.540;7.186;2023-02-22T06:13:36;59.10;;;16.43;;
10845;SDS011;5476;51.540;7.186;2023-02-22T06:16:04;54.63;;;16.67;;
10845;SDS011;5476;51.540;7.186;2023-02-22T06:18:32;35.07;;;14.73;;
10845;SDS011;5476;51.540;7.186;2023-02-22T06:20:59;41.30;;;16.23;;
10845;SDS011;5476;51.540;7.186;2023-02-22T06:23:28;39.73;;;16.17;;
10845;SDS011;5476;51.540;7.186;2023-02-22T06:25:55;46.57;;;15.33;;
10845;SDS011;5476;51.540;7.186;2023-02-22T06:28:22;41.80;;;14.93;;
10845;SDS011;5476;51.540;7.186;2023-02-22T06:30:50;54.87;;;15.47;;
10845;SDS011;5476;51.540;7.186;2023-02-22T06:33:17;56.03;;;15.47;;
10845;SDS011;5476;51.540;7.186;2023-02-22T06:35:44;49.23;;;15.87;;
10845;SDS011;5476;51.540;7.186;2023-02-22T06:38:15;66.33;;;17.37;;
10845;SDS011;5476;51.540;7.186;2023-02-22T06:40:47;56.23;;;16.13;;
10845;SDS011;5476;51.540;7.186;2023-02-22T06:43:14;44.53;;;15.90;;
10845;SDS011;5476;51.540;7.186;2023-02-22T06:45:42;42.97;;;16.23;;
10845;SDS011;5476;51.540;7.186;2023-02-22T06:48:09;41.03;;;15.57;;
10845;SDS011;5476;51.540;7.186;2023-02-22T06:50:36;41.73;;;17.33;;
10845;SDS011;5476;51.540;7.186;2023-02-22T06:53:04;43.27;;;14.30;;
10845;SDS011;5476;51.540;7.186;2023-02-22T06:55:32;66.03;;;15.47;;
10845;SDS011;5476;51.540;7.186;2023-02-22T06:58:02;37.43;;;14.33;;
10845;SDS011;5476;51.540;7.186;2023-02-22T07:00:30;44.03;;;15.83;;
10845;SDS011;5476;51.540;7.186;2023-02-22T07:02:57;38.43;;;14.97;;
10845;SDS011;5476;51.540;7.186;2023-02-22T07:05:25;44.87;;;15.13;;
10845;SDS011;5476;51.540;7.186;2023-02-22T07:07:53;27.33;;;13.20;;
10845;SDS011;5476;51.540;7.186;2023-02-22T07:10:21;38.93;;;13.87;;
10845;SDS011;5476;51.540;7.186;2023-02-22T07:12:51;41.40;;;13.20;;
10845;SDS011;5476;51.540;7.186;2023-02-22T07:15:20;38.87;;;12.93;;
10845;SDS011;5476;51.540;7.186;2023-02-22T07:17:49;31.60;;;12.83;;
10845;SDS011;5476;51.540;7.186;2023-02-22T07:20:16;42.73;;;10.87;;
10845;SDS011;5476;51.540;7.186;2023-02-22T07:22:44;31.67;;;11.50;;
10845;SDS011;5476;51.540;7.186;2023-02-22T07:25:11;25.53;;;10.17;;
10845;SDS011;5476;51.540;7.186;2023-02-22T07:27:39;18.50;;;9.80;;
10845;SDS011;5476;51.540;7.186;2023-02-22T07:30:07;29.83;;;10.47;;
10845;SDS011;5476;51.540;7.186;2023-02-22T07:32:36;23.87;;;10.83;;
10845;SDS011;5476;51.540;7.186;2023-02-22T07:35:03;22.33;;;10.77;;
10845;SDS011;5476;51.540;7.186;2023-02-22T07:37:30;19.37;;;10.13;;
10845;SDS011;5476;51.540;7.186;2023-02-22T07:39:57;16.17;;;8.90;;
10845;SDS011;5476;51.540;7.186;2023-02-22T07:42:24;14.47;;;8.10;;
10845;SDS011;5476;51.540;7.186;2023-02-22T07:44:52;22.53;;;8.37;;
10845;SDS011;5476;51.540;7.186;2023-02-22T07:47:19;15.50;;;7.47;;
10845;SDS011;5476;51.540;7.186;2023-02-22T07:49:47;13.53;;;7.97;;
10845;SDS011;5476;51.540;7.186;2023-02-22T07:52:14;14.13;;;7.30;;
10845;SDS011;5476;51.540;7.186;2023-02-22T07:54:47;12.90;;;7.30;;
10845;SDS011;5476;51.540;7.186;2023-02-22T07:57:15;11.90;;;7.27;;
10845;SDS011;5476;51.540;7.186;2023-02-22T07:59:44;12.30;;;7.90;;
10845;SDS011;5476;51.540;7.186;2023-02-22T08:02:13;17.90;;;7.87;;
10845;SDS011;5476;51.540;7.186;2023-02-22T08:04:48;13.83;;;8.10;;
10845;SDS011;5476;51.540;7.186;2023-02-22T08:07:22;15.10;;;8.37;;
10845;SDS011;5476;51.540;7.186;2023-02-22T08:09:49;13.37;;;8.17;;
10845;SDS011;5476;51.540;7.186;2023-02-22T08:12:16;12.07;;;7.97;;
10845;SDS011;5476;51.540;7.186;2023-02-22T08:14:43;15.93;;;9.53;;
10845;SDS011;5476;51.540;7.186;2023-02-22T08:17:12;15.73;;;9.07;;
10845;SDS011;5476;51.540;7.186;2023-02-22T08:19:39;19.20;;;10.17;;
10845;SDS011;5476;51.540;7.186;2023-02-22T08:22:08;21.60;;;10.40;;
10845;SDS011;5476;51.540;7.186;2023-02-22T08:24:35;20.53;;;10.87;;
10845;SDS011;5476;51.540;7.186;2023-02-22T08:27:02;17.47;;;10.70;;
10845;SDS011;5476;51.540;7.186;2023-02-22T08:29:29;19.13;;;11.67;;
10845;SDS011;5476;51.540;7.186;2023-02-22T08:31:57;19.50;;;11.50;;
10845;SDS011;5476;51.540;7.186;2023-02-22T08:34:25;18.50;;;11.90;;
10845;SDS011;5476;51.540;7.186;2023-02-22T08:36:52;19.10;;;11.60;;
10845;SDS011;5476;51.540;7.186;2023-02-22T08:39:21;20.40;;;12.20;;
10845;SDS011;5476;51.540;7.186;2023-02-22T08:41:48;20.07;;;12.50;;
10845;SDS011;5476;51.540;7.186;2023-02-22T08:44:15;20.83;;;12.00;;
10845;SDS011;5476;51.540;7.186;2023-02-22T08:46:43;21.80;;;12.40;;
10845;SDS011;5476;51.540;7.186;2023-02-22T08:49:10;19.13;;;11.77;;
10845;SDS011;5476;51.540;7.186;2023-02-22T08:51:40;20.77;;;11.83;;
10845;SDS011;5476;51.540;7.186;2023-02-22T08:54:07;24.43;;;12.83;;
10845;SDS011;5476;51.540;7.186;2023-02-22T08:56:36;19.00;;;12.37;;
10845;SDS011;5476;51.540;7.186;2023-02-22T08:59:03;19.50;;;12.00;;
10845;SDS011;5476;51.540;7.186;2023-02-22T09:01:30;20.27;;;11.83;;
10845;SDS011;5476;51.540;7.186;2023-02-22T09:04:07;19.23;;;11.83;;
10845;SDS011;5476;51.540;7.186;2023-02-22T09:06:35;21.30;;;12.67;;
10845;SDS011;5476;51.540;7.186;2023-02-22T09:09:02;20.27;;;13.30;;
10845;SDS011;5476;51.540;7.186;2023-02-22T09:11:29;19.03;;;11.53;;
10845;SDS011;5476;51.540;7.186;2023-02-22T09:13:58;18.67;;;11.87;;
10845;SDS011;5476;51.540;7.186;2023-02-22T09:16:25;17.53;;;11.63;;
10845;SDS011;5476;51.540;7.186;2023-02-22T09:18:53;17.70;;;11.67;;
10845;SDS011;5476;51.540;7.186;2023-02-22T09:21:20;16.03;;;11.27;;
10845;SDS011;5476;51.540;7.186;2023-02-22T09:23:47;17.03;;;11.20;;
10845;SDS011;5476;51.540;7.186;2023-02-22T09:26:14;17.37;;;11.70;;
10845;SDS011;5476;51.540;7.186;2023-02-22T09:28:41;17.00;;;11.07;;
10845;SDS011;5476;51.540;7.186;2023-02-22T09:31:10;19.70;;;11.83;;
10845;SDS011;5476;51.540;7.186;2023-02-22T09:33:38;20.03;;;11.67;;
10845;SDS011;5476;51.540;7.186;2023-02-22T09:36:06;18.03;;;12.37;;
10845;SDS011;5476;51.540;7.186;2023-02-22T09:38:34;19.73;;;12.10;;
10845;SDS011;5476;51.540;7.186;2023-02-22T09:41:06;18.97;;;12.50;;
10845;SDS011;5476;51.540;7.186;2023-02-22T09:43:38;19.77;;;11.90;;
10845;SDS011;5476;51.540;7.186;2023-02-22T09:46:20;17.13;;;12.20;;
10845;SDS011;5476;51.540;7.186;2023-02-22T09:48:56;18.80;;;11.63;;
10845;SDS011;5476;51.540;7.186;2023-02-22T09:51:24;18.10;;;11.70;;
10845;SDS011;5476;51.540;7.186;2023-02-22T09:53:59;18.70;;;11.30;;
10845;SDS011;5476;51.540;7.186;2023-02-22T09:56:38;16.57;;;11.60;;
10845;SDS011;5476;51.540;7.186;2023-02-22T09:59:09;16.13;;;11.37;;
10845;SDS011;5476;51.540;7.186;2023-02-22T10:01:45;18.23;;;12.13;;
10845;SDS011;5476;51.540;7.186;2023-02-22T10:04:15;16.37;;;11.23;;
10845;SDS011;5476;51.540;7.186;2023-02-22T10:06:55;17.33;;;11.77;;
10845;SDS011;5476;51.540;7.186;2023-02-22T10:09:26;17.80;;;11.77;;
10845;SDS011;5476;51.540;7.186;2023-02-22T10:11:55;22.90;;;12.00;;
10845;SDS011;5476;51.540;7.186;2023-02-22T10:14:41;19.40;;;12.77;;
10845;SDS011;5476;51.540;7.186;2023-02-22T10:17:17;19.27;;;12.63;;
10845;SDS011;5476;51.540;7.186;2023-02-22T10:19:48;18.73;;;12.13;;
10845;SDS011;5476;51.540;7.186;2023-02-22T10:22:26;15.87;;;11.60;;
10845;SDS011;5476;51.540;7.186;2023-02-22T10:25:00;19.47;;;12.73;;
10845;SDS011;5476;51.540;7.186;2023-02-22T10:27:30;17.65;;;12.02;;
10845;SDS011;5476;51.540;7.186;2023-02-22T10:30:00;19.37;;;13.03;;
10845;SDS011;5476;51.540;7.186;2023-02-22T10:32:31;19.60;;;13.32;;
10845;SDS011;5476;51.540;7.186;2023-02-22T10:35:01;17.25;;;12.07;;
10845;SDS011;5476;51.540;7.186;2023-02-22T10:37:31;19.05;;;11.82;;
10845;SDS011;5476;51.540;7.186;2023-02-22T10:40:00;19.35;;;13.23;;
10845;SDS011;5476;51.540;7.186;2023-02-22T10:42:30;18.92;;;12.43;;
10845;SDS011;5476;51.540;7.186;2023-02-22T10:44:58;19.42;;;13.27;;
10845;SDS011;5476;51.540;7.186;2023-02-22T10:47:25;22.58;;;13.35;;
10845;SDS011;5476;51.540;7.186;2023-02-22T10:49:54;22.50;;;13.65;;
10845;SDS011;5476;51.540;7.186;2023-02-22T10:52:23;21.38;;;14.05;;
10845;SDS011;5476;51.540;7.186;2023-02-22T10:54:51;20.83;;;13.55;;
10845;SDS011;5476;51.540;7.186;2023-02-22T10:57:24;19.95;;;12.48;;
10845;SDS011;5476;51.540;7.186;2023-02-22T10:59:51;23.55;;;13.38;;
10845;SDS011;5476;51.540;7.186;2023-02-22T11:02:23;20.58;;;12.27;;
10845;SDS011;5476;51.540;7.186;2023-02-22T11:04:51;19.77;;;12.77;;
10845;SDS011;5476;51.540;7.186;2023-02-22T11:07:22;21.27;;;12.77;;
10845;SDS011;5476;51.540;7.186;2023-02-22T11:09:52;18.27;;;12.77;;
10845;SDS011;5476;51.540;7.186;2023-02-22T11:12:20;22.15;;;12.98;;
10845;SDS011;5476;51.540;7.186;2023-02-22T11:17:20;17.08;;;12.57;;
10845;SDS011;5476;51.540;7.186;2023-02-22T11:18:01;15.23;;;11.85;;
10845;SDS011;5476;51.540;7.186;2023-02-22T11:20:32;17.50;;;12.38;;
10845;SDS011;5476;51.540;7.186;2023-02-22T11:23:04;17.65;;;11.45;;
10845;SDS011;5476;51.540;7.186;2023-02-22T11:25:34;18.50;;;11.45;;
10845;SDS011;5476;51.540;7.186;2023-02-22T11:28:05;18.25;;;12.55;;
10845;SDS011;5476;51.540;7.186;2023-02-22T11:30:34;18.15;;;11.20;;
10845;SDS011;5476;51.540;7.186;2023-02-22T11:33:10;16.10;;;11.52;;
10845;SDS011;5476;51.540;7.186;2023-02-22T11:38:54;16.02;;;11.98;;
10845;SDS011;5476;51.540;7.186;2023-02-22T11:41:25;20.23;;;12.98;;
10845;SDS011;5476;51.540;7.186;2023-02-22T11:43:53;16.52;;;11.70;;
10845;SDS011;5476;51.540;7.186;2023-02-22T11:46:20;16.63;;;11.82;;
10845;SDS011;5476;51.540;7.186;2023-02-22T11:48:55;18.45;;;12.02;;
10845;SDS011;5476;51.540;7.186;2023-02-22T11:51:25;16.67;;;11.30;;
10845;SDS011;5476;51.540;7.186;2023-02-22T11:53:59;14.20;;;11.15;;
10845;SDS011;5476;51.540;7.186;2023-02-22T11:56:30;17.50;;;10.82;;
10845;SDS011;5476;51.540;7.186;2023-02-22T11:59:02;15.73;;;10.55;;
10845;SDS011;5476;51.540;7.186;2023-02-22T12:01:36;16.48;;;10.57;;
10845;SDS011;5476;51.540;7.186;2023-02-22T12:07:17;13.48;;;10.15;;
10845;SDS011;5476;51.540;7.186;2023-02-22T12:09:50;12.27;;;9.70;;
10845;SDS011;5476;51.540;7.186;2023-02-22T12:12:22;14.10;;;9.25;;
10845;SDS011;5476;51.540;7.186;2023-02-22T12:14:56;16.67;;;10.18;;
10845;SDS011;5476;51.540;7.186;2023-02-22T12:17:30;12.57;;;8.63;;
10845;SDS011;5476;51.540;7.186;2023-02-22T12:20:00;11.50;;;7.90;;
10845;SDS011;5476;51.540;7.186;2023-02-22T12:22:32;10.10;;;7.07;;
10845;SDS011;5476;51.540;7.186;2023-02-22T12:25:04;7.47;;;5.97;;
10845;SDS011;5476;51.540;7.186;2023-02-22T12:27:40;7.63;;;5.20;;
10845;SDS011;5476;51.540;7.186;2023-02-22T12:30:10;11.27;;;7.47;;
10845;SDS011;5476;51.540;7.186;2023-02-22T12:32:40;8.00;;;5.47;;
10845;SDS011;5476;51.540;7.186;2023-02-22T12:35:10;9.40;;;5.72;;
10845;SDS011;5476;51.540;7.186;2023-02-22T12:37:41;9.40;;;5.93;;
10845;SDS011;5476;51.540;7.186;2023-02-22T12:40:18;12.30;;;7.78;;
10845;SDS011;5476;51.540;7.186;2023-02-22T12:42:49;6.95;;;4.82;;
10845;SDS011;5476;51.540;7.186;2023-02-22T12:45:21;9.00;;;5.25;;
10845;SDS011;5476;51.540;7.186;2023-02-22T12:47:54;8.75;;;5.53;;
10845;SDS011;5476;51.540;7.186;2023-02-22T12:50:24;11.25;;;5.32;;
10845;SDS011;5476;51.540;7.186;2023-02-22T12:52:55;7.75;;;4.63;;
10845;SDS011;5476;51.540;7.186;2023-02-22T12:55:34;7.45;;;4.68;;
10845;SDS011;5476;51.540;7.186;2023-02-22T12:58:06;5.78;;;4.80;;
10845;SDS011;5476;51.540;7.186;2023-02-22T13:00:36;7.22;;;5.50;;
10845;SDS011;5476;51.540;7.186;2023-02-22T13:03:15;7.20;;;4.70;;
10845;SDS011;5476;51.540;7.186;2023-02-22T13:05:47;6.75;;;4.28;;
10845;SDS011;5476;51.540;7.186;2023-02-22T13:08:20;7.57;;;4.55;;
10845;SDS011;5476;51.540;7.186;2023-02-22T13:10:55;8.38;;;4.90;;
10845;SDS011;5476;51.540;7.186;2023-02-22T13:13:25;7.30;;;4.82;;
10845;SDS011;5476;51.540;7.186;2023-02-22T13:15:54;8.52;;;4.68;;
10845;SDS011;5476;51.540;7.186;2023-02-22T13:18:25;7.57;;;4.70;;
10845;SDS011;5476;51.540;7.186;2023-02-22T13:20:56;7.25;;;5.32;;
10845;SDS011;5476;51.540;7.186;2023-02-22T13:23:31;6.43;;;4.78;;
10845;SDS011;5476;51.540;7.186;2023-02-22T13:26:17;7.15;;;4.32;;
10845;SDS011;5476;51.540;7.186;2023-02-22T13:29:35;9.10;;;4.50;;
10845;SDS011;5476;51.540;7.186;2023-02-22T13:32:24;7.80;;;4.47;;
10845;SDS011;5476;51.540;7.186;2023-02-22T13:35:07;6.43;;;3.97;;
10845;SDS011;5476;51.540;7.186;2023-02-22T13:38:13;7.38;;;4.45;;
10845;SDS011;5476;51.540;7.186;2023-02-22T13:46:23;4.95;;;4.15;;
10845;SDS011;5476;51.540;7.186;2023-02-22T13:51:46;6.05;;;4.38;;
10845;SDS011;5476;51.540;7.186;2023-02-22T13:54:16;6.78;;;4.32;;
10845;SDS011;5476;51.540;7.186;2023-02-22T13:56:45;5.53;;;4.05;;
10845;SDS011;5476;51.540;7.186;2023-02-22T13:59:20;8.15;;;4.43;;
10845;SDS011;5476;51.540;7.186;2023-02-22T14:01:50;5.72;;;4.47;;
10845;SDS011;5476;51.540;7.186;2023-02-22T14:04:20;8.23;;;4.80;;
10845;SDS011;5476;51.540;7.186;2023-02-22T14:06:48;6.72;;;4.57;;
10845;SDS011;5476;51.540;7.186;2023-02-22T14:09:15;6.93;;;5.07;;
10845;SDS011;5476;51.540;7.186;2023-02-22T14:11:44;7.63;;;5.47;;
10845;SDS011;5476;51.540;7.186;2023-02-22T14:14:13;7.28;;;4.80;;
10845;SDS011;5476;51.540;7.186;2023-02-22T14:16:41;9.00;;;5.45;;
10845;SDS011;5476;51.540;7.186;2023-02-22T14:19:14;8.57;;;5.10;;
10845;SDS011;5476;51.540;7.186;2023-02-22T14:21:54;8.55;;;5.00;;
10845;SDS011;5476;51.540;7.186;2023-02-22T14:24:24;7.20;;;4.40;;
10845;SDS011;5476;51.540;7.186;2023-02-22T14:26:53;10.25;;;5.15;;
10845;SDS011;5476;51.540;7.186;2023-02-22T14:29:21;7.20;;;4.75;;
10845;SDS011;5476;51.540;7.186;2023-02-22T14:31:56;7.43;;;4.78;;
10845;SDS011;5476;51.540;7.186;2023-02-22T14:34:38;19.23;;;17.00;;
10845;SDS011;5476;51.540;7.186;2023-02-22T14:37:07;10.50;;;7.10;;
10845;SDS011;5476;51.540;7.186;2023-02-22T14:39:35;17.25;;;4.97;;
10845;SDS011;5476;51.540;7.186;2023-02-22T14:42:04;8.82;;;4.82;;
10845;SDS011;5476;51.540;7.186;2023-02-22T14:44:34;46.78;;;38.58;;
10845;SDS011;5476;51.540;7.186;2023-02-22T14:47:06;8.43;;;5.43;;
10845;SDS011;5476;51.540;7.186;2023-02-22T14:49:37;8.23;;;5.10;;
10845;SDS011;5476;51.540;7.186;2023-02-22T14:55:16;10.40;;;5.97;;
10845;SDS011;5476;51.540;7.186;2023-02-22T14:57:51;7.75;;;4.80;;
10845;SDS011;5476;51.540;7.186;2023-02-22T15:00:21;10.15;;;5.38;;
10845;SDS011;5476;51.540;7.186;2023-02-22T15:02:55;7.72;;;4.82;;
10845;SDS011;5476;51.540;7.186;2023-02-22T15:05:23;8.57;;;5.10;;
10845;SDS011;5476;51.540;7.186;2023-02-22T15:07:54;10.10;;;5.82;;
10845;SDS011;5476;51.540;7.186;2023-02-22T15:10:26;10.40;;;5.18;;
10845;SDS011;5476;51.540;7.186;2023-02-22T15:12:55;10.20;;;5.50;;
10845;SDS011;5476;51.540;7.186;2023-02-22T15:15:33;9.23;;;5.15;;